createdAt,value
2023-01-23T00:01:34.661Z,1.34
2023-01-23T00:04:01.513Z,1.26
2023-01-23T00:06:28.637Z,1.13
2023-01-23T00:08:56.660Z,1.16
2023-01-23T00:11:25.987Z,1.18
2023-01-23T00:13:52.972Z,1.22
2023-01-23T00:16:21.307Z,1.09
2023-01-23T00:18:48.190Z,1.04
2023-01-23T00:21:17.551Z,1.12
2023-01-23T00:23:47.129Z,1.20
2023-01-23T00:26:17.388Z,1.15
2023-01-23T00:28:44.797Z,1.07
2023-01-23T00:31:15.399Z,0.96
2023-01-23T00:33:43.387Z,0.98
2023-01-23T00:36:10.643Z,0.94
2023-01-23T00:38:38.054Z,1.02
2023-01-23T00:41:08.278Z,0.97
2023-01-23T00:43:35.007Z,1.04
2023-01-23T00:46:01.941Z,0.98
2023-01-23T00:48:28.697Z,0.97
2023-01-23T00:50:55.164Z,1.08
2023-01-23T00:53:22.261Z,1.02
2023-01-23T00:55:50.353Z,0.92
2023-01-23T00:58:17.074Z,0.90
2023-01-23T01:00:43.724Z,0.88
2023-01-23T01:03:10.272Z,0.97
2023-01-23T01:05:36.796Z,0.97
2023-01-23T01:08:03.846Z,1.01
2023-01-23T01:10:32.767Z,1.02
2023-01-23T01:13:02.095Z,1.03
2023-01-23T01:15:29.263Z,1.05
2023-01-23T01:17:55.735Z,1.07
2023-01-23T01:20:23.816Z,0.97
2023-01-23T01:22:50.785Z,0.96
2023-01-23T01:25:17.428Z,1.07
2023-01-23T01:27:43.896Z,1.05
2023-01-23T01:30:12.280Z,1.09
2023-01-23T01:32:40.169Z,1.08
2023-01-23T01:35:07.299Z,1.08
2023-01-23T01:37:34.828Z,1.19
2023-01-23T01:40:01.557Z,1.30
2023-01-23T01:42:28.414Z,1.32
2023-01-23T01:44:59.815Z,1.27
2023-01-23T01:47:26.479Z,1.19
2023-01-23T01:49:56.174Z,1.26
2023-01-23T01:52:23.411Z,1.25
2023-01-23T01:54:57.017Z,1.35
2023-01-23T01:57:35.974Z,1.29
2023-01-23T02:00:08.761Z,1.27
2023-01-23T02:02:38.784Z,1.30
2023-01-23T02:05:14.653Z,1.23
2023-01-23T02:07:55.158Z,1.26
2023-01-23T02:10:23.079Z,1.29
2023-01-23T02:12:51.574Z,1.23
2023-01-23T02:15:23.446Z,1.19
2023-01-23T02:17:51.537Z,1.17
2023-01-23T02:20:22.622Z,1.16
2023-01-23T02:23:12.582Z,1.12
2023-01-23T02:25:53.350Z,1.15
2023-01-23T02:28:20.567Z,1.14
2023-01-23T02:30:48.039Z,1.25
2023-01-23T02:33:21.050Z,1.26
2023-01-23T02:35:48.299Z,1.20
2023-01-23T02:38:15.061Z,1.15
2023-01-23T02:40:42.817Z,1.21
2023-01-23T02:43:13.912Z,1.13
2023-01-23T02:45:40.519Z,1.12
2023-01-23T02:48:08.881Z,1.19
2023-01-23T02:50:35.392Z,1.07
2023-01-23T02:53:02.446Z,1.14
2023-01-23T02:55:33.393Z,1.18
2023-01-23T02:58:19.736Z,1.25
2023-01-23T03:00:47.744Z,1.19
2023-01-23T03:03:15.980Z,1.21
2023-01-23T03:05:42.777Z,1.26
2023-01-23T03:08:09.581Z,1.10
2023-01-23T03:10:36.097Z,1.16
2023-01-23T03:13:04.595Z,1.18
2023-01-23T03:15:31.529Z,1.23
2023-01-23T03:17:58.243Z,1.29
2023-01-23T03:20:26.781Z,1.38
2023-01-23T03:22:54.702Z,1.44
2023-01-23T03:25:21.240Z,1.43
2023-01-23T03:27:48.456Z,1.41
2023-01-23T03:30:16.946Z,1.45
2023-01-23T03:32:44.661Z,1.42
2023-01-23T03:35:14.289Z,1.39
2023-01-23T03:37:40.795Z,1.30
2023-01-23T03:40:26.662Z,1.38
2023-01-23T03:42:53.164Z,1.31
2023-01-23T03:45:19.561Z,1.33
2023-01-23T03:47:46.124Z,1.29
2023-01-23T03:50:22.294Z,1.28
2023-01-23T03:52:49.099Z,1.36
2023-01-23T03:55:15.904Z,1.35
2023-01-23T03:57:42.298Z,1.35
2023-01-23T04:00:09.538Z,1.40
2023-01-23T04:02:36.144Z,1.38
2023-01-23T04:05:02.643Z,1.32
2023-01-23T04:07:29.185Z,1.37
2023-01-23T04:09:56.155Z,1.25
2023-01-23T04:12:22.687Z,1.34
2023-01-23T04:14:49.100Z,1.38
2023-01-23T04:17:16.001Z,1.43
2023-01-23T04:19:42.506Z,1.46
2023-01-23T04:22:10.390Z,1.41
2023-01-23T04:24:36.862Z,1.28
2023-01-23T04:27:04.323Z,1.38
2023-01-23T04:29:31.000Z,1.35
2023-01-23T04:31:57.519Z,1.50
2023-01-23T04:34:23.895Z,1.44
2023-01-23T04:36:50.316Z,1.40
2023-01-23T04:39:16.878Z,1.43
2023-01-23T04:41:43.278Z,1.45
2023-01-23T04:44:22.107Z,1.40
2023-01-23T04:46:50.711Z,1.45
2023-01-23T04:49:18.711Z,1.49
2023-01-23T04:51:48.036Z,1.57
2023-01-23T04:54:14.896Z,1.50
2023-01-23T04:56:41.467Z,1.48
2023-01-23T04:59:09.096Z,1.40
2023-01-23T05:01:36.302Z,1.46
2023-01-23T05:04:02.919Z,1.47
2023-01-23T05:06:29.589Z,1.40
2023-01-23T05:08:55.959Z,1.38
2023-01-23T05:11:22.431Z,1.50
2023-01-23T05:13:48.925Z,1.47
2023-01-23T05:16:15.703Z,1.39
2023-01-23T05:18:42.162Z,1.39
2023-01-23T05:21:08.564Z,1.38
2023-01-23T05:23:35.091Z,1.37
2023-01-23T05:26:01.677Z,1.35
2023-01-23T05:28:28.117Z,1.45
2023-01-23T05:30:54.663Z,1.22
2023-01-23T05:33:21.317Z,1.15
2023-01-23T05:35:48.884Z,1.10
2023-01-23T05:38:15.272Z,1.16
2023-01-23T05:40:41.876Z,1.14
2023-01-23T05:43:13.540Z,1.13
2023-01-23T05:45:39.930Z,1.22
2023-01-23T05:48:06.782Z,1.18
2023-01-23T05:50:34.486Z,1.24
2023-01-23T05:53:01.076Z,1.16
2023-01-23T05:55:29.901Z,1.17
2023-01-23T05:57:56.319Z,1.34
2023-01-23T06:00:24.281Z,1.26
2023-01-23T06:02:50.857Z,1.38
2023-01-23T06:05:17.302Z,1.32
2023-01-23T06:07:44.730Z,1.25
2023-01-23T06:10:11.393Z,1.44
2023-01-23T06:12:37.899Z,1.36
2023-01-23T06:15:04.885Z,1.32
2023-01-23T06:17:31.300Z,1.46
2023-01-23T06:19:59.301Z,1.46
2023-01-23T06:22:25.801Z,1.34
2023-01-23T06:24:52.660Z,1.46
2023-01-23T06:27:19.193Z,1.44
2023-01-23T06:29:58.791Z,1.48
2023-01-23T06:32:26.788Z,1.47
2023-01-23T06:34:53.277Z,1.54
2023-01-23T06:37:19.897Z,1.57
2023-01-23T06:39:46.286Z,1.51
2023-01-23T06:42:12.707Z,1.48
2023-01-23T06:44:47.243Z,1.40
2023-01-23T06:47:13.937Z,1.25
2023-01-23T06:49:40.518Z,1.33
2023-01-23T06:52:07.040Z,1.29
2023-01-23T06:54:34.110Z,1.29
2023-01-23T06:57:00.508Z,1.32
2023-01-23T06:59:26.917Z,1.42
2023-01-23T07:01:53.527Z,1.46
2023-01-23T07:04:20.132Z,1.32
2023-01-23T07:06:46.901Z,1.29
2023-01-23T07:09:13.322Z,1.40
2023-01-23T07:11:40.253Z,1.49
2023-01-23T07:14:06.946Z,1.56
2023-01-23T07:16:35.267Z,1.49
2023-01-23T07:19:02.688Z,1.51
2023-01-23T07:21:29.168Z,1.55
2023-01-23T07:23:55.793Z,1.48
2023-01-23T07:26:22.419Z,1.34
2023-01-23T07:28:48.834Z,1.35
2023-01-23T07:31:15.407Z,1.26
2023-01-23T07:33:44.286Z,1.26
2023-01-23T07:36:13.855Z,1.27
2023-01-23T07:38:40.963Z,1.26
2023-01-23T07:41:07.403Z,1.20
2023-01-23T07:43:35.469Z,1.30
2023-01-23T07:46:02.713Z,1.35
2023-01-23T07:48:29.674Z,1.41
2023-01-23T07:50:56.289Z,1.57
2023-01-23T07:53:22.762Z,1.56
2023-01-23T07:55:49.148Z,1.57
2023-01-23T07:58:15.930Z,1.53
2023-01-23T08:00:42.440Z,1.56
2023-01-23T08:03:08.955Z,1.68
2023-01-23T08:05:35.726Z,1.67
2023-01-23T08:08:13.136Z,1.70
2023-01-23T08:10:40.917Z,1.74
2023-01-23T08:13:07.582Z,1.65
2023-01-23T08:15:33.977Z,1.57
2023-01-23T08:18:08.713Z,1.50
2023-01-23T08:20:36.300Z,1.66
2023-01-23T08:23:02.818Z,1.63
2023-01-23T08:25:29.439Z,1.80
2023-01-23T08:27:56.901Z,1.90
2023-01-23T08:30:23.305Z,1.89
2023-01-23T08:32:49.654Z,1.95
2023-01-23T08:35:16.429Z,1.90
2023-01-23T08:37:45.036Z,1.94
2023-01-23T08:40:11.916Z,1.84
2023-01-23T08:42:38.290Z,1.80
2023-01-23T08:45:05.210Z,1.95
2023-01-23T08:47:36.377Z,1.96
2023-01-23T08:50:06.955Z,2.10
2023-01-23T08:52:35.329Z,2.11
2023-01-23T08:55:02.077Z,2.14
2023-01-23T08:57:28.693Z,2.15
2023-01-23T08:59:59.482Z,2.13
2023-01-23T09:02:25.921Z,1.96
2023-01-23T09:04:52.600Z,2.02
2023-01-23T09:07:18.967Z,2.00
2023-01-23T09:09:45.436Z,1.81
2023-01-23T09:12:11.989Z,1.83
2023-01-23T09:14:38.427Z,1.85
2023-01-23T09:17:06.021Z,1.92
2023-01-23T09:19:32.694Z,2.03
2023-01-23T09:21:59.059Z,2.11
2023-01-23T09:24:25.519Z,2.04
2023-01-23T09:26:51.934Z,2.19
2023-01-23T09:29:18.287Z,2.12
2023-01-23T09:31:44.672Z,2.03
2023-01-23T09:34:11.091Z,2.12
2023-01-23T09:36:43.359Z,1.86
2023-01-23T09:39:10.587Z,2.11
2023-01-23T09:41:39.157Z,2.19
2023-01-23T09:44:07.535Z,2.03
2023-01-23T09:46:57.778Z,1.80
2023-01-23T09:49:58.545Z,1.80
2023-01-23T09:52:31.484Z,1.91
2023-01-23T09:55:13.463Z,2.06
2023-01-23T09:57:47.029Z,2.09
2023-01-23T10:00:27.565Z,2.21
2023-01-23T10:02:54.473Z,2.37
2023-01-23T10:05:27.562Z,2.35
2023-01-23T10:08:19.332Z,2.39
2023-01-23T10:11:05.565Z,2.47
2023-01-23T10:13:48.110Z,2.39
2023-01-23T10:16:50.085Z,2.59
2023-01-23T10:19:32.333Z,2.12
2023-01-23T10:22:14.969Z,2.43
2023-01-23T10:24:52.423Z,2.46
2023-01-23T10:27:24.191Z,2.11
2023-01-23T10:30:03.747Z,1.96
2023-01-23T10:32:32.341Z,2.06
2023-01-23T10:35:06.404Z,2.29
2023-01-23T10:37:53.032Z,2.33
2023-01-23T10:40:40.625Z,2.37
2023-01-23T10:43:17.289Z,2.27
2023-01-23T10:45:46.023Z,2.43
2023-01-23T10:48:49.628Z,2.43
2023-01-23T10:51:45.032Z,2.65
2023-01-23T10:54:31.304Z,2.63
2023-01-23T10:57:22.174Z,2.82
2023-01-23T10:59:57.866Z,2.75
2023-01-23T11:02:32.788Z,2.94
2023-01-23T11:05:01.984Z,3.06
2023-01-23T11:07:33.417Z,2.94
2023-01-23T11:10:05.331Z,2.56
2023-01-23T11:12:34.465Z,2.49
2023-01-23T11:15:22.969Z,2.45
2023-01-23T11:17:51.127Z,2.63
2023-01-23T11:20:31.845Z,2.33
2023-01-23T11:23:07.031Z,2.49
2023-01-23T11:25:40.493Z,2.63
2023-01-23T11:28:27.829Z,2.63
2023-01-23T11:31:15.971Z,2.82
2023-01-23T11:33:52.111Z,3.08
2023-01-23T11:36:18.466Z,3.11
2023-01-23T11:39:05.043Z,3.21
2023-01-23T11:41:34.202Z,3.50
2023-01-23T11:44:10.024Z,3.60
2023-01-23T11:46:46.449Z,3.05
2023-01-23T11:49:15.870Z,3.31
2023-01-23T11:51:49.136Z,3.32
2023-01-23T11:54:34.781Z,3.37
2023-01-23T11:57:03.477Z,3.37
2023-01-23T11:59:53.151Z,3.63
2023-01-23T12:02:46.982Z,3.66
2023-01-23T12:05:32.248Z,3.37
2023-01-23T12:08:36.664Z,2.99
2023-01-23T12:11:14.212Z,3.04
2023-01-23T12:13:48.600Z,3.08
2023-01-23T12:16:30.049Z,2.86
2023-01-23T12:19:21.592Z,2.64
2023-01-23T12:21:56.635Z,2.85
2023-01-23T12:24:53.622Z,3.01
2023-01-23T12:27:27.361Z,2.89
2023-01-23T12:30:15.739Z,2.96
2023-01-23T12:32:52.980Z,2.79
2023-01-23T12:35:37.556Z,2.72
2023-01-23T12:38:09.797Z,2.76
2023-01-23T12:41:12.496Z,2.64
2023-01-23T12:43:49.397Z,2.51
2023-01-23T12:46:42.261Z,2.70
2023-01-23T12:49:29.450Z,2.86
2023-01-23T12:52:11.541Z,2.86
2023-01-23T12:54:43.846Z,2.90
2023-01-23T12:57:10.968Z,2.82
2023-01-23T12:59:54.604Z,2.73
2023-01-23T13:02:40.817Z,2.88
2023-01-23T13:05:19.822Z,2.38
2023-01-23T13:08:01.633Z,2.54
2023-01-23T13:11:12.008Z,2.58
2023-01-23T13:13:40.452Z,2.16
2023-01-23T13:16:18.594Z,2.28
2023-01-23T13:19:12.037Z,2.50
2023-01-23T13:21:57.294Z,2.56
2023-01-23T13:24:48.639Z,2.43
2023-01-23T13:27:40.026Z,2.34
2023-01-23T13:30:22.348Z,2.10
2023-01-23T13:32:50.827Z,2.03
2023-01-23T13:35:39.993Z,2.03
2023-01-23T13:38:29.519Z,1.68
2023-01-23T13:41:05.315Z,1.78
2023-01-23T13:43:50.198Z,1.98
2023-01-23T13:46:40.560Z,2.04
2023-01-23T14:27:36.758Z,2.06
2023-01-23T14:30:17.095Z,2.03
2023-01-23T14:32:45.859Z,1.99
2023-01-23T14:35:23.942Z,1.81
2023-01-23T14:37:52.598Z,1.83
2023-01-23T14:40:27.113Z,1.98
2023-01-23T14:43:07.768Z,1.81
2023-01-23T14:45:35.619Z,1.87
2023-01-23T14:48:06.706Z,1.92
2023-01-23T14:50:34.207Z,1.94
2023-01-23T14:53:05.970Z,1.95
2023-01-23T14:55:36.826Z,2.02
2023-01-23T14:58:03.872Z,1.96
2023-01-23T15:00:34.319Z,1.91
2023-01-23T15:03:04.489Z,1.92
2023-01-23T15:05:32.974Z,1.92
2023-01-23T15:08:03.512Z,2.01
2023-01-23T15:10:32.398Z,2.00
2023-01-23T15:13:22.669Z,1.87
2023-01-23T15:15:56.384Z,1.93
2023-01-23T15:18:24.881Z,2.01
2023-01-23T15:20:59.070Z,2.00
2023-01-23T15:23:31.312Z,1.85
2023-01-23T15:26:25.577Z,1.75
2023-01-23T15:28:55.106Z,1.76
2023-01-23T15:31:29.758Z,1.75
2023-01-23T15:34:10.021Z,1.76
2023-01-23T15:36:36.479Z,1.85
2023-01-23T15:39:03.557Z,1.91
2023-01-23T15:42:00.496Z,1.81
2023-01-23T15:44:31.572Z,1.78
2023-01-23T15:47:01.702Z,1.88
2023-01-23T15:49:28.959Z,1.58
2023-01-23T15:52:00.138Z,1.50
2023-01-23T15:54:31.573Z,1.56
2023-01-23T15:57:06.955Z,1.57
2023-01-23T15:59:35.574Z,1.67
2023-01-23T16:02:02.146Z,1.39
2023-01-23T16:04:32.269Z,1.48
2023-01-23T16:07:06.792Z,1.41
2023-01-23T16:09:37.013Z,1.51
2023-01-23T16:12:10.522Z,1.57
2023-01-23T16:14:36.923Z,1.58
2023-01-23T16:17:15.869Z,1.50
2023-01-23T16:19:43.417Z,1.49
2023-01-23T16:22:13.992Z,1.43
2023-01-23T16:24:41.559Z,1.42
2023-01-23T16:27:27.805Z,1.53
2023-01-23T16:29:55.303Z,1.48
2023-01-23T16:32:22.156Z,1.51
2023-01-23T16:34:51.487Z,1.60
2023-01-23T16:37:18.694Z,1.64
2023-01-23T16:39:46.816Z,1.57
2023-01-23T16:42:19.990Z,1.61
2023-01-23T16:44:47.816Z,1.63
2023-01-23T16:47:15.537Z,1.66
2023-01-23T16:49:52.196Z,1.57
2023-01-23T16:52:24.411Z,1.66
2023-01-23T16:54:52.127Z,1.53
2023-01-23T16:57:20.366Z,1.53
2023-01-23T16:59:48.198Z,1.62
2023-01-23T17:02:25.339Z,1.56
2023-01-23T17:04:55.378Z,1.44
2023-01-23T17:07:22.094Z,1.46
2023-01-23T17:09:49.291Z,1.44
2023-01-23T17:12:22.117Z,1.46
2023-01-23T17:14:49.155Z,1.48
2023-01-23T17:17:19.760Z,1.47
2023-01-23T17:19:46.501Z,1.54
2023-01-23T17:22:34.788Z,1.61
2023-01-23T17:25:01.148Z,1.41
2023-01-23T17:27:27.535Z,1.47
2023-01-23T17:29:54.640Z,1.48
2023-01-23T17:32:29.827Z,1.48
2023-01-23T17:34:57.646Z,1.46
2023-01-23T17:37:24.236Z,1.49
2023-01-23T17:39:50.992Z,1.58
2023-01-23T17:42:22.169Z,1.63
2023-01-23T17:44:49.449Z,1.59
2023-01-23T17:47:17.508Z,1.46
2023-01-23T17:49:46.766Z,1.34
2023-01-23T17:52:13.197Z,1.44
2023-01-23T17:54:39.578Z,1.55
2023-01-23T17:57:05.961Z,1.53
2023-01-23T17:59:32.337Z,1.49
2023-01-23T18:02:00.997Z,1.51
2023-01-23T18:04:27.335Z,1.56
2023-01-23T18:06:53.897Z,1.45
2023-01-23T18:09:21.263Z,1.53
2023-01-23T18:11:52.667Z,1.44
2023-01-23T18:14:19.061Z,1.49
2023-01-23T18:16:45.932Z,1.68
2023-01-23T18:19:21.117Z,1.58
2023-01-23T18:21:51.327Z,1.64
2023-01-23T18:24:27.409Z,1.69
2023-01-23T18:26:59.809Z,1.64
2023-01-23T18:29:57.993Z,1.65
2023-01-23T18:32:37.261Z,1.59
2023-01-23T18:35:25.778Z,1.65
2023-01-23T18:38:15.174Z,1.61
2023-01-23T18:40:47.872Z,1.60
2023-01-23T18:43:34.798Z,1.60
2023-01-23T18:46:01.791Z,1.56
2023-01-23T18:48:29.410Z,1.61
2023-01-23T18:51:34.940Z,1.65
2023-01-23T18:54:29.884Z,1.58
2023-01-23T18:57:02.348Z,1.53
2023-01-23T18:59:28.864Z,1.44
2023-01-23T19:02:21.870Z,1.56
2023-01-23T19:05:19.319Z,1.45
2023-01-23T19:07:46.814Z,1.43
2023-01-23T19:10:18.226Z,1.34
2023-01-23T19:13:07.648Z,1.45
2023-01-23T19:15:41.798Z,1.50
2023-01-23T19:18:50.543Z,1.55
2023-01-23T19:21:26.714Z,1.63
2023-01-23T19:24:06.777Z,1.66
2023-01-23T19:26:35.480Z,1.69
2023-01-23T19:29:19.957Z,1.65
2023-01-23T19:32:03.705Z,1.55
2023-01-23T19:34:31.644Z,1.53
2023-01-23T19:36:58.841Z,1.61
2023-01-23T19:39:25.652Z,1.53
2023-01-23T19:41:53.569Z,1.41
2023-01-23T19:44:24.968Z,1.40
2023-01-23T19:46:52.335Z,1.52
2023-01-23T19:49:18.935Z,1.45
2023-01-23T19:51:45.704Z,1.45
2023-01-23T19:54:13.424Z,1.53
2023-01-23T19:56:41.102Z,1.43
2023-01-23T19:59:07.596Z,1.25
2023-01-23T20:01:38.439Z,1.45
2023-01-23T20:04:12.523Z,1.48
2023-01-23T20:06:40.752Z,1.56
2023-01-23T20:09:08.401Z,1.60
2023-01-23T20:11:36.425Z,1.55
2023-01-23T20:14:03.728Z,1.58
2023-01-23T20:16:30.264Z,1.38
2023-01-23T20:18:56.877Z,1.51
2023-01-23T20:21:25.170Z,1.49
2023-01-23T20:23:52.737Z,1.43
2023-01-23T20:26:21.349Z,1.27
2023-01-23T20:28:55.759Z,1.36
2023-01-23T20:31:23.135Z,1.41
2023-01-23T20:33:50.191Z,1.34
2023-01-23T20:36:16.889Z,1.43
2023-01-23T20:38:43.479Z,1.43
2023-01-23T20:41:15.553Z,1.41
2023-01-23T20:43:45.506Z,1.48
2023-01-23T20:46:14.123Z,1.46
2023-01-23T20:48:44.280Z,1.31
2023-01-23T20:51:13.220Z,1.36
2023-01-23T20:53:40.194Z,1.52
2023-01-23T20:56:13.664Z,1.49
2023-01-23T20:59:01.864Z,1.31
2023-01-23T21:01:58.655Z,1.42
2023-01-23T21:04:33.932Z,1.39
2023-01-23T21:07:01.306Z,1.45
2023-01-23T21:09:27.909Z,1.38
2023-01-23T21:11:55.062Z,1.22
2023-01-23T21:14:22.245Z,1.19
2023-01-23T21:16:48.880Z,1.28
2023-01-23T21:19:15.816Z,1.37
2023-01-23T21:21:43.143Z,1.32
2023-01-23T21:24:09.956Z,1.20
2023-01-23T21:26:36.779Z,1.30
2023-01-23T21:29:04.179Z,1.25
2023-01-23T21:31:33.796Z,1.25
2023-01-23T21:34:07.777Z,1.32
2023-01-23T21:36:36.392Z,1.33
2023-01-23T21:39:03.876Z,1.50
2023-01-23T21:41:30.728Z,1.48
2023-01-23T21:43:57.297Z,1.48
2023-01-23T21:46:23.918Z,1.45
2023-01-23T21:48:51.923Z,1.29
2023-01-23T21:51:23.811Z,1.34
2023-01-23T21:53:50.458Z,1.53
2023-01-23T21:56:19.934Z,1.50
2023-01-23T21:58:47.203Z,1.50
2023-01-23T22:01:39.547Z,1.57
2023-01-23T22:04:11.226Z,1.54
2023-01-23T22:06:40.436Z,1.53
2023-01-23T22:09:07.666Z,1.61
2023-01-23T22:11:34.356Z,1.57
2023-01-23T22:14:01.295Z,1.55
2023-01-23T22:16:46.473Z,1.49
2023-01-23T22:19:15.326Z,1.55
2023-01-23T22:21:42.421Z,1.54
2023-01-23T22:24:09.112Z,1.53
2023-01-23T22:26:35.793Z,1.40
2023-01-23T22:29:02.188Z,1.44
2023-01-23T22:31:31.943Z,1.56
2023-01-23T22:33:58.507Z,1.52
2023-01-23T22:36:25.135Z,1.47
